Terminal Aerodrome Forecast
Issued by NWS

Home | Current Version | Previous Version | Text Only | Print | Product List | Glossary On
Versions: 1 2 3 4 5 6 7 8 9 10 11 12 13 14 15 16
000
FTUS44 KLZK 021100
TAFHRO
TAF
KHRO 021120Z 0212/0312 16007KT P6SM -RA BKN040 BKN080
      TEMPO 0212/0215 VRB15G25KT 3SM -TSRA BKN020CB
     FM021500 22009KT P6SM SCT020 BKN080
     FM030100 19006KT P6SM SCT080
     FM030800 15009KT P6SM SCT040 OVC080 PROB30 0308/0312 4SM -TSRA
      BR SCT040CB=

USA.gov is the U.S. government's official web portal to all federal, state and local government web resources and services.